メインページ
METAR-TAF:

METAR-TAF

空港 :

Mount Washington Regional Airport

Whitefield, ニューハンプシャー州, アメリカ合衆国

緯度: 44-21-58N, 経度: 071-33-09W, 海抜: 327m

現時点の気象観測

当レポートは1時間11分前の14:52(UTC)に作成
無風
気温 -19°C
湿度 77%
気圧 1030 hPa
視程: 16.1km
晴天

METAR: KHIE 181452Z AUTO 00000KT 10SM CLR M19/M22 A3043 RMK AO2 SLP342 T11941217 58029

時間: 11:03 (16:03 UTC)

予報

当レポートは4時間30分前の11:33(UTC)に作成
予報は18日の 12時(UTC)から 19日の 12時(UTC)まで有効
変向風 3kt
視程: 10km
高度25000ftの千切れ雲あり
18日の 1900時(UTC)から
南/南東の風 5kt
視程: 10km
高度6000ftの千切れ雲あり
19日の 0000時(UTC)から
南東の風 8kt
視程: 8.0km
高度2000ftの雲は散在している
高度3500ftの千切れ雲あり
小雪, 靄
19日の 0800時(UTC)から
変向風 3kt
視程: 3.2km
高度1200ftの曇り
小雪, 靄

TAF: KHIE 181133Z 1812/1912 VRB03KT P6SM BKN250 FM181900 15005KT P6SM BKN060 FM190000 14008KT 5SM -SN BR SCT020 BKN035 FM190800 VRB03KT 2SM -SN BR OVC012

4,000以上の空港の気象観測と天気予報(METAR報とTAF報)

利用可能な観測所は地図上に黄色い丸と赤い丸で示す。

丸の上にカーソルを重ねると観測所名を参照できる。

次にクリックすると気象観測と天気予報を参照できる。

マップの切り替え:黒色「×」印の緑ボタンをクリックして拡大、「-」印の緑ボタンをクリックして縮小、緑色の三角印をクリックして隣りの地図に切り替え


METAR-TAF: